createdAt,value
2018-04-26T00:00:51.667Z,9.33
2018-04-26T00:03:26.554Z,9.31
2018-04-26T00:06:01.080Z,9.28
2018-04-26T00:08:35.987Z,9.31
2018-04-26T00:11:10.743Z,9.32
2018-04-26T00:13:45.690Z,9.32
2018-04-26T00:16:20.556Z,9.34
2018-04-26T00:18:55.628Z,9.34
2018-04-26T00:21:30.807Z,9.32
2018-04-26T00:24:05.891Z,9.28
2018-04-26T00:26:41.074Z,9.24
2018-04-26T00:29:16.129Z,9.28
2018-04-26T00:31:51.106Z,9.29
2018-04-26T00:34:25.920Z,9.24
2018-04-26T00:37:01.004Z,9.21
2018-04-26T00:39:36.286Z,9.24
2018-04-26T00:42:11.462Z,9.31
2018-04-26T00:44:46.266Z,9.33
2018-04-26T00:47:21.051Z,9.30
2018-04-26T00:49:56.021Z,9.26
2018-04-26T00:52:31.098Z,9.23
2018-04-26T00:55:05.879Z,9.22
2018-04-26T00:57:40.972Z,9.23
2018-04-26T01:00:15.760Z,9.20
2018-04-26T01:02:50.647Z,9.21
2018-04-26T01:05:25.636Z,9.23
2018-04-26T01:08:00.555Z,9.26
2018-04-26T01:10:35.290Z,9.26
2018-04-26T01:13:10.403Z,9.31
2018-04-26T01:15:45.382Z,9.36
2018-04-26T01:18:20.495Z,9.38
2018-04-26T01:20:55.498Z,9.41
2018-04-26T01:23:30.306Z,9.41
2018-04-26T01:26:05.312Z,9.44
2018-04-26T01:28:40.482Z,9.45
2018-04-26T01:31:15.635Z,9.51
2018-04-26T01:33:50.818Z,9.60
2018-04-26T01:36:37.128Z,9.64
2018-04-26T01:39:11.990Z,9.63
2018-04-26T01:41:46.778Z,9.65
2018-04-26T01:44:21.850Z,9.63
2018-04-26T01:46:56.830Z,9.64
2018-04-26T01:49:32.058Z,9.60
2018-04-26T01:52:07.146Z,9.63
2018-04-26T01:54:41.990Z,9.61
2018-04-26T01:57:16.978Z,9.57
2018-04-26T01:59:52.003Z,9.50
2018-04-26T02:02:26.884Z,9.53
2018-04-26T02:05:01.780Z,9.56
2018-04-26T02:07:36.666Z,9.57
2018-04-26T02:10:11.623Z,9.58
2018-04-26T02:12:46.941Z,9.59
2018-04-26T02:15:21.951Z,9.64
2018-04-26T02:17:57.155Z,9.60
2018-04-26T02:20:32.043Z,9.64
2018-04-26T02:23:06.806Z,9.61
2018-04-26T02:25:41.984Z,9.60
2018-04-26T02:28:17.062Z,9.56
2018-04-26T02:30:52.138Z,9.60
2018-04-26T02:33:27.127Z,9.63
2018-04-26T02:36:02.326Z,9.59
2018-04-26T02:38:37.412Z,9.58
2018-04-26T02:41:12.410Z,9.60
2018-04-26T02:43:47.423Z,9.58
2018-04-26T02:46:22.511Z,9.59
2018-04-26T02:48:57.423Z,9.55
2018-04-26T02:51:32.277Z,9.60
2018-04-26T02:54:07.463Z,9.57
2018-04-26T02:56:42.385Z,9.52
2018-04-26T02:59:17.063Z,9.55
2018-04-26T03:01:52.077Z,9.55
2018-04-26T03:04:27.039Z,9.52
2018-04-26T03:07:02.256Z,9.55
2018-04-26T03:09:37.131Z,9.58
2018-04-26T03:12:12.118Z,9.52
2018-04-26T03:14:47.115Z,9.48
2018-04-26T03:17:21.890Z,9.48
2018-04-26T03:19:56.762Z,9.49
2018-04-26T03:22:31.835Z,9.48
2018-04-26T03:25:06.826Z,9.43
2018-04-26T03:27:41.906Z,9.35
2018-04-26T03:30:16.910Z,9.34
2018-04-26T03:32:51.695Z,9.32
2018-04-26T03:35:26.593Z,9.35
2018-04-26T03:38:01.503Z,9.37
2018-04-26T03:40:36.695Z,9.35
2018-04-26T03:43:11.478Z,9.33
2018-04-26T03:45:45.899Z,9.31
2018-04-26T03:48:21.034Z,9.25
2018-04-26T03:50:56.126Z,9.22
2018-04-26T03:53:31.126Z,9.22
2018-04-26T03:56:06.211Z,9.20
2018-04-26T03:58:40.796Z,9.16
2018-04-26T04:01:27.190Z,9.15
2018-04-26T04:04:12.935Z,9.12
2018-04-26T04:06:47.517Z,9.06
2018-04-26T04:09:22.611Z,9.09
2018-04-26T04:11:57.497Z,9.06
2018-04-26T04:14:32.276Z,9.09
2018-04-26T04:17:07.254Z,9.10
2018-04-26T04:19:42.039Z,9.03
2018-04-26T04:22:17.016Z,8.93
2018-04-26T04:24:51.947Z,8.85
2018-04-26T04:27:26.714Z,8.85
2018-04-26T04:30:01.596Z,8.81
2018-04-26T04:32:36.479Z,8.77
2018-04-26T04:35:11.529Z,8.77
2018-04-26T04:37:46.857Z,8.74
2018-04-26T04:40:21.740Z,8.71
2018-04-26T04:42:56.740Z,8.67
2018-04-26T04:45:31.610Z,8.64
2018-04-26T04:48:06.702Z,8.59
2018-04-26T04:50:41.722Z,8.60
2018-04-26T04:53:16.373Z,8.62
2018-04-26T04:55:51.375Z,8.63
2018-04-26T04:58:26.367Z,8.60
2018-04-26T05:01:01.181Z,8.61
2018-04-26T05:03:36.377Z,8.58
2018-04-26T05:06:11.490Z,8.61
2018-04-26T05:08:46.276Z,8.61
2018-04-26T05:11:21.238Z,8.62
2018-04-26T05:13:56.121Z,8.67
2018-04-26T05:16:31.412Z,8.70
2018-04-26T05:19:06.286Z,8.75
2018-04-26T05:21:40.926Z,8.78
2018-04-26T05:24:15.893Z,8.82
2018-04-26T05:26:50.816Z,8.84
2018-04-26T05:29:25.701Z,8.81
2018-04-26T05:32:00.665Z,8.83
2018-04-26T05:34:35.784Z,8.85
2018-04-26T05:37:10.660Z,8.80
2018-04-26T05:39:45.945Z,8.82
2018-04-26T05:42:20.985Z,8.83
2018-04-26T05:44:55.875Z,8.92
2018-04-26T05:47:30.795Z,8.95
2018-04-26T05:50:05.295Z,9.00
2018-04-26T05:52:40.582Z,8.96
2018-04-26T05:55:15.467Z,8.99
2018-04-26T05:57:50.302Z,9.02
2018-04-26T06:00:25.177Z,9.09
2018-04-26T06:03:00.163Z,9.11
2018-04-26T06:05:35.358Z,9.15
2018-04-26T06:08:10.242Z,9.17
2018-04-26T06:10:45.250Z,9.15
2018-04-26T06:13:20.151Z,9.17
2018-04-26T06:15:55.018Z,9.19
2018-04-26T06:18:29.806Z,9.18
2018-04-26T06:21:04.677Z,9.14
2018-04-26T06:23:39.858Z,9.11
2018-04-26T06:26:14.968Z,9.05
2018-04-26T06:28:49.970Z,9.03
2018-04-26T06:31:24.835Z,9.04
2018-04-26T06:34:00.027Z,9.05
2018-04-26T06:36:34.817Z,9.07
2018-04-26T06:39:09.399Z,9.12
2018-04-26T06:41:43.874Z,9.14
2018-04-26T06:44:18.888Z,9.21
2018-04-26T06:46:53.688Z,9.24
2018-04-26T06:49:28.894Z,9.27
2018-04-26T06:52:03.635Z,9.39
2018-04-26T06:54:38.926Z,9.46
2018-04-26T06:57:13.801Z,9.53
2018-04-26T06:59:48.750Z,9.59
2018-04-26T07:02:23.925Z,9.62
2018-04-26T07:04:58.739Z,9.61
2018-04-26T07:07:33.609Z,9.61
2018-04-26T07:10:08.316Z,9.57
2018-04-26T07:12:43.385Z,9.59
2018-04-26T07:15:18.461Z,9.60
2018-04-26T07:17:53.723Z,9.55
2018-04-26T07:20:28.715Z,9.54
2018-04-26T07:23:03.795Z,9.56
2018-04-26T07:25:38.678Z,9.52
2018-04-26T07:28:13.663Z,9.44
2018-04-26T07:30:48.881Z,9.58
2018-04-26T07:33:23.862Z,9.64
2018-04-26T07:35:58.843Z,9.69
2018-04-26T07:38:34.046Z,9.76
2018-04-26T07:41:09.218Z,9.80
2018-04-26T07:43:44.197Z,9.89
2018-04-26T07:46:19.199Z,9.95
2018-04-26T07:48:54.289Z,9.99
2018-04-26T07:51:29.306Z,10.01
2018-04-26T07:54:04.189Z,10.00
2018-04-26T07:56:39.074Z,10.02
2018-04-26T07:59:13.950Z,10.01
2018-04-26T08:01:49.186Z,10.08
2018-04-26T08:04:24.082Z,10.03
2018-04-26T08:06:58.978Z,10.03
2018-04-26T08:09:34.061Z,10.07
2018-04-26T08:12:08.944Z,10.13
2018-04-26T08:14:43.922Z,10.15
2018-04-26T08:17:18.794Z,10.16
2018-04-26T08:19:53.573Z,10.21
2018-04-26T08:22:30.562Z,10.30
2018-04-26T08:25:05.329Z,10.32
2018-04-26T08:27:40.159Z,10.34
2018-04-26T08:30:14.708Z,10.33
2018-04-26T08:32:49.810Z,10.41
2018-04-26T08:35:24.794Z,10.46
2018-04-26T08:37:59.734Z,10.41
2018-04-26T08:40:34.369Z,10.33
2018-04-26T08:43:09.447Z,10.21
2018-04-26T08:45:44.234Z,10.09
2018-04-26T08:48:19.206Z,10.01
2018-04-26T08:50:54.089Z,9.99
2018-04-26T08:53:28.529Z,10.00
2018-04-26T08:56:02.786Z,10.06
2018-04-26T08:58:37.962Z,10.24
2018-04-26T09:01:12.969Z,10.60
2018-04-26T09:03:47.968Z,11.00
2018-04-26T09:06:22.875Z,11.44
2018-04-26T09:08:57.758Z,11.80
2018-04-26T09:11:32.650Z,12.03
2018-04-26T09:14:07.639Z,12.24
2018-04-26T09:16:42.191Z,12.35
2018-04-26T09:19:17.390Z,12.34
2018-04-26T09:21:52.224Z,12.42
2018-04-26T09:24:27.521Z,12.71
2018-04-26T09:27:02.699Z,13.07
2018-04-26T09:29:37.146Z,13.30
2018-04-26T09:32:12.434Z,13.51
2018-04-26T09:34:47.609Z,13.67
2018-04-26T09:37:22.387Z,13.76
2018-04-26T09:39:57.498Z,13.94
2018-04-26T09:42:32.694Z,14.08
2018-04-26T09:45:07.877Z,13.93
2018-04-26T09:47:42.749Z,13.70
2018-04-26T09:50:17.942Z,13.45
2018-04-26T09:52:52.630Z,13.13
2018-04-26T09:55:27.772Z,12.94
2018-04-26T09:58:02.617Z,12.81
2018-04-26T10:00:42.471Z,12.74
2018-04-26T10:03:17.347Z,12.70
2018-04-26T10:05:57.998Z,12.71
2018-04-26T10:08:33.078Z,12.77
2018-04-26T10:11:07.927Z,12.73
2018-04-26T10:13:43.015Z,12.31
2018-04-26T10:16:17.919Z,11.65
2018-04-26T10:18:53.090Z,11.17
2018-04-26T10:21:28.277Z,10.81
2018-04-26T10:24:03.443Z,10.66
2018-04-26T10:26:38.332Z,10.68
2018-04-26T10:29:13.429Z,10.82
2018-04-26T10:31:48.942Z,11.04
2018-04-26T10:34:23.926Z,11.60
2018-04-26T10:36:59.203Z,12.30
2018-04-26T10:39:34.391Z,12.92
2018-04-26T10:42:09.087Z,13.26
2018-04-26T10:44:43.789Z,13.58
2018-04-26T10:47:18.770Z,13.96
2018-04-26T10:49:53.530Z,14.19
2018-04-26T10:52:28.631Z,14.17
2018-04-26T10:55:03.438Z,14.00
2018-04-26T10:57:38.245Z,13.76
2018-04-26T11:00:12.416Z,13.49
2018-04-26T11:02:47.388Z,13.10
2018-04-26T11:05:22.474Z,13.03
2018-04-26T11:07:57.443Z,13.44
2018-04-26T11:10:32.490Z,13.91
2018-04-26T11:13:07.719Z,14.09
2018-04-26T11:15:42.740Z,14.30
2018-04-26T11:18:17.706Z,14.66
2018-04-26T11:20:52.499Z,14.98
2018-04-26T11:23:27.366Z,15.24
2018-04-26T11:26:02.019Z,15.54
2018-04-26T11:28:37.002Z,15.63
2018-04-26T11:31:12.005Z,15.45
2018-04-26T11:33:47.016Z,15.43
2018-04-26T11:36:22.011Z,15.59
2018-04-26T11:38:57.122Z,15.78
2018-04-26T11:41:32.227Z,16.05
2018-04-26T11:44:07.224Z,16.22
2018-04-26T11:46:41.877Z,16.31
2018-04-26T11:49:16.840Z,16.31
2018-04-26T11:51:51.615Z,16.11
2018-04-26T11:54:26.513Z,15.80
2018-04-26T11:57:01.299Z,15.69
2018-04-26T11:59:36.318Z,15.65
2018-04-26T12:02:11.215Z,15.55
2018-04-26T12:04:46.019Z,15.37
2018-04-26T12:07:21.019Z,15.13
2018-04-26T12:09:55.899Z,15.00
2018-04-26T12:12:30.831Z,14.93
2018-04-26T12:15:05.810Z,15.16
2018-04-26T12:17:41.057Z,15.50
2018-04-26T12:20:16.077Z,15.64
2018-04-26T12:22:51.185Z,15.76
2018-04-26T12:25:26.071Z,15.84
2018-04-26T12:28:01.078Z,15.98
2018-04-26T12:30:36.078Z,16.07
2018-04-26T12:33:10.855Z,16.04
2018-04-26T12:35:45.836Z,15.82
2018-04-26T12:38:20.711Z,15.77
2018-04-26T12:40:55.094Z,15.37
2018-04-26T12:43:30.190Z,14.25
2018-04-26T12:46:05.383Z,13.65
2018-04-26T12:48:40.421Z,13.25
2018-04-26T12:51:15.306Z,12.90
2018-04-26T12:53:50.278Z,12.67
2018-04-26T12:56:25.286Z,12.57
2018-04-26T12:59:00.063Z,12.62
2018-04-26T13:01:35.038Z,12.82
2018-04-26T13:04:09.923Z,13.35
2018-04-26T13:06:44.626Z,13.84
2018-04-26T13:09:19.599Z,14.27
2018-04-26T13:11:54.154Z,14.58
2018-04-26T13:14:29.360Z,14.48
2018-04-26T13:17:04.466Z,14.21
2018-04-26T13:19:39.237Z,14.01
2018-04-26T13:22:14.326Z,13.78
2018-04-26T13:24:49.370Z,13.76
2018-04-26T13:27:24.399Z,13.99
2018-04-26T13:29:59.490Z,14.35
2018-04-26T13:32:34.294Z,14.68
2018-04-26T13:35:09.111Z,14.85
2018-04-26T13:37:43.997Z,14.77
2018-04-26T13:40:18.754Z,14.74
2018-04-26T13:42:53.634Z,14.77
2018-04-26T13:45:28.795Z,14.87
2018-04-26T13:48:03.887Z,14.83
2018-04-26T13:50:38.877Z,14.81
2018-04-26T13:53:13.771Z,14.83
2018-04-26T13:55:48.655Z,14.90
2018-04-26T13:58:23.662Z,15.03
2018-04-26T14:00:58.542Z,15.10
2018-04-26T14:03:33.313Z,15.13
2018-04-26T14:06:08.409Z,15.04
2018-04-26T14:08:43.097Z,14.87
2018-04-26T14:11:18.098Z,14.74
2018-04-26T14:13:53.226Z,14.72
2018-04-26T14:16:28.138Z,14.79
2018-04-26T14:19:02.954Z,14.76
2018-04-26T14:21:37.942Z,14.64
2018-04-26T14:24:13.126Z,14.48
2018-04-26T14:26:47.803Z,14.52
2018-04-26T14:29:22.763Z,14.51
2018-04-26T14:31:57.575Z,14.32
2018-04-26T14:34:32.858Z,14.16
2018-04-26T14:37:07.670Z,14.10
2018-04-26T14:39:42.657Z,13.90
2018-04-26T14:42:17.746Z,13.69
2018-04-26T14:44:52.604Z,13.45
2018-04-26T14:47:27.405Z,13.36
2018-04-26T14:50:02.300Z,13.33
2018-04-26T14:52:36.894Z,13.30
2018-04-26T14:55:11.455Z,13.25
2018-04-26T14:57:45.942Z,13.16
2018-04-26T15:00:21.065Z,13.16
2018-04-26T15:02:56.149Z,13.18
2018-04-26T15:05:31.362Z,13.28
2018-04-26T15:08:06.470Z,13.52
2018-04-26T15:10:40.851Z,13.81
2018-04-26T15:13:15.747Z,14.07
2018-04-26T15:15:50.835Z,14.21
2018-04-26T15:18:25.829Z,14.33
2018-04-26T15:21:00.641Z,14.49
2018-04-26T15:23:35.786Z,14.66
2018-04-26T15:26:10.582Z,14.69
2018-04-26T15:28:45.502Z,14.73
2018-04-26T15:31:20.298Z,14.69
2018-04-26T15:33:55.269Z,14.65
2018-04-26T15:36:30.257Z,14.62
2018-04-26T15:39:05.181Z,14.50
2018-04-26T15:41:39.766Z,14.24
2018-04-26T15:44:14.844Z,13.77
2018-04-26T15:46:49.799Z,13.57
2018-04-26T15:49:24.824Z,13.60
2018-04-26T15:51:59.709Z,13.84
2018-04-26T15:54:35.156Z,14.06
2018-04-26T15:57:26.218Z,14.28
2018-04-26T16:00:12.332Z,14.42
2018-04-26T16:03:04.161Z,14.44
2018-04-26T16:05:49.579Z,14.36
2018-04-26T16:11:40.853Z,14.10
2018-04-26T16:14:32.518Z,13.87
2018-04-26T16:17:32.730Z,13.63
2018-04-26T16:23:39.062Z,13.26
2018-04-26T16:26:25.563Z,13.18
2018-04-26T16:29:17.274Z,13.19
2018-04-26T16:32:08.810Z,13.15
2018-04-26T16:38:03.762Z,13.20
2018-04-26T16:40:38.578Z,13.16
2018-04-26T16:43:13.096Z,13.23
2018-04-26T16:45:47.616Z,13.28
2018-04-26T16:48:22.290Z,13.24
2018-04-26T16:50:56.803Z,13.21
2018-04-26T16:53:31.416Z,13.21
2018-04-26T16:56:05.594Z,13.21
2018-04-26T16:58:40.386Z,13.24
2018-04-26T17:01:15.202Z,13.27
2018-04-26T17:03:49.930Z,13.25
2018-04-26T17:06:24.429Z,13.18
2018-04-26T17:08:59.003Z,13.04
2018-04-26T17:11:33.635Z,12.87
2018-04-26T17:14:09.137Z,12.36
2018-04-26T17:16:43.933Z,11.63
2018-04-26T17:19:18.549Z,11.24
2018-04-26T17:21:53.063Z,10.94
2018-04-26T17:24:27.667Z,10.86
2018-04-26T17:27:02.366Z,10.84
2018-04-26T17:29:37.092Z,10.83
2018-04-26T17:32:11.991Z,10.96
2018-04-26T17:34:47.833Z,11.10
2018-04-26T17:37:23.003Z,11.21
2018-04-26T17:39:57.684Z,11.32
2018-04-26T17:42:32.389Z,11.19
2018-04-26T17:45:06.907Z,10.96
2018-04-26T17:47:41.549Z,10.71
2018-04-26T17:50:16.290Z,10.56
2018-04-26T17:52:50.921Z,10.66
2018-04-26T17:55:25.690Z,10.79
2018-04-26T17:58:00.282Z,10.85
2018-04-26T18:00:34.994Z,10.94
2018-04-26T18:03:09.591Z,11.01
2018-04-26T18:05:44.123Z,11.06
2018-04-26T18:08:18.719Z,11.19
2018-04-26T18:10:53.134Z,11.28
2018-04-26T18:13:27.858Z,11.32
2018-04-26T18:16:05.084Z,11.39
2018-04-26T18:18:40.059Z,11.41
2018-04-26T18:21:15.651Z,11.40
2018-04-26T18:23:50.851Z,11.41
2018-04-26T18:26:25.408Z,11.46
2018-04-26T18:28:59.781Z,11.49
2018-04-26T18:31:34.678Z,11.55
2018-04-26T18:34:09.824Z,11.62
2018-04-26T18:36:44.856Z,11.63
2018-04-26T18:39:21.867Z,11.69
2018-04-26T18:41:58.488Z,11.70
2018-04-26T18:44:33.686Z,11.66
2018-04-26T18:47:08.207Z,11.61
2018-04-26T18:49:52.678Z,11.54
2018-04-26T18:52:30.495Z,11.52
2018-04-26T18:55:05.604Z,11.49
2018-04-26T19:00:27.622Z,11.39
2018-04-26T19:03:02.312Z,11.34
2018-04-26T19:05:36.893Z,11.26
2018-04-26T19:08:12.778Z,11.20
2018-04-26T19:10:47.423Z,11.12
2018-04-26T19:13:21.795Z,11.05
2018-04-26T19:15:56.309Z,10.97
2018-04-26T19:18:30.863Z,10.88
2018-04-26T19:21:05.399Z,10.74
2018-04-26T19:23:40.100Z,10.68
2018-04-26T19:26:15.052Z,10.60
2018-04-26T19:28:50.104Z,10.66
2018-04-26T19:31:24.721Z,10.72
2018-04-26T19:33:59.750Z,10.71
2018-04-26T19:36:35.108Z,10.68
2018-04-26T19:39:09.707Z,10.65
2018-04-26T19:41:44.852Z,10.66
2018-04-26T19:44:20.203Z,10.66
2018-04-26T19:46:55.537Z,10.71
2018-04-26T19:49:30.286Z,10.71
2018-04-26T19:52:04.854Z,10.71
2018-04-26T19:54:39.536Z,10.70
2018-04-26T19:57:14.434Z,10.69
2018-04-26T19:59:49.121Z,10.66
2018-04-26T20:02:23.908Z,10.62
2018-04-26T20:04:58.601Z,10.59
2018-04-26T20:07:33.434Z,10.55
2018-04-26T20:10:08.146Z,10.51
2018-04-26T20:12:43.278Z,10.44
2018-04-26T20:15:18.262Z,10.41
2018-04-26T20:17:53.072Z,10.43
2018-04-26T20:20:27.582Z,10.45
2018-04-26T20:23:02.131Z,10.43
2018-04-26T20:25:37.162Z,10.46
2018-04-26T20:28:12.292Z,10.50
2018-04-26T20:30:46.891Z,10.47
2018-04-26T20:33:21.302Z,10.46
2018-04-26T20:35:55.878Z,10.44
2018-04-26T20:38:30.487Z,10.35
2018-04-26T20:41:05.107Z,10.33
2018-04-26T20:43:39.729Z,10.41
2018-04-26T20:46:14.017Z,11.14
2018-04-26T20:48:49.012Z,11.99
2018-04-26T20:51:23.608Z,12.76
2018-04-26T20:53:58.129Z,13.40
2018-04-26T20:56:32.875Z,13.82
2018-04-26T20:59:08.337Z,14.07
2018-04-26T21:01:43.018Z,14.30
2018-04-26T21:04:17.726Z,14.52
2018-04-26T21:06:52.312Z,14.69
2018-04-26T21:09:27.110Z,14.62
2018-04-26T21:12:01.798Z,14.07
2018-04-26T21:14:36.498Z,13.27
2018-04-26T21:17:11.078Z,12.61
2018-04-26T21:19:45.207Z,12.02
2018-04-26T21:22:20.090Z,11.57
2018-04-26T21:24:54.819Z,11.23
2018-04-26T21:27:29.438Z,10.99
2018-04-26T21:30:03.651Z,10.73
2018-04-26T21:32:40.263Z,10.45
2018-04-26T21:35:15.451Z,10.21
2018-04-26T21:37:50.043Z,9.99
2018-04-26T21:40:24.636Z,9.78
2018-04-26T21:42:59.143Z,9.60
2018-04-26T21:45:33.627Z,9.45
2018-04-26T21:48:08.322Z,9.35
2018-04-26T21:50:48.603Z,9.33
2018-04-26T21:53:28.373Z,9.29
2018-04-26T21:56:08.915Z,9.28
2018-04-26T21:58:49.393Z,9.29
2018-04-26T22:01:29.840Z,9.25
2018-04-26T22:04:05.878Z,9.18
2018-04-26T22:06:40.750Z,9.03
2018-04-26T22:09:15.459Z,8.91
2018-04-26T22:11:49.957Z,8.82
2018-04-26T22:14:24.690Z,8.79
2018-04-26T22:16:59.274Z,8.78
2018-04-26T22:19:34.063Z,8.79
2018-04-26T22:22:08.751Z,8.77
2018-04-26T22:24:43.615Z,8.72
2018-04-26T22:27:18.302Z,8.59
2018-04-26T22:29:52.974Z,8.58
2018-04-26T22:32:27.795Z,8.64
2018-04-26T22:35:02.392Z,8.63
2018-04-26T22:37:37.076Z,8.62
2018-04-26T22:40:11.809Z,8.63
2018-04-26T22:42:46.301Z,8.62
2018-04-26T22:45:20.979Z,8.60
2018-04-26T22:47:55.762Z,8.46
2018-04-26T22:50:30.454Z,8.31
2018-04-26T22:53:05.046Z,8.17
2018-04-26T22:55:39.552Z,8.04
2018-04-26T22:58:14.235Z,7.95
2018-04-26T23:00:49.005Z,7.92
2018-04-26T23:03:23.682Z,8.02
2018-04-26T23:05:58.294Z,8.13
2018-04-26T23:08:33.086Z,8.20
2018-04-26T23:11:07.869Z,8.30
2018-04-26T23:13:42.578Z,8.24
2018-04-26T23:16:17.202Z,8.27
2018-04-26T23:18:51.804Z,8.29
2018-04-26T23:21:26.482Z,8.26
2018-04-26T23:24:01.058Z,8.16
2018-04-26T23:26:35.868Z,8.15
2018-04-26T23:29:10.438Z,8.15
2018-04-26T23:31:45.026Z,8.17
2018-04-26T23:34:19.745Z,8.13
2018-04-26T23:36:54.329Z,8.08
2018-04-26T23:39:28.910Z,8.13
2018-04-26T23:42:03.499Z,8.10
2018-04-26T23:44:38.019Z,8.07
2018-04-26T23:47:12.597Z,8.07
2018-04-26T23:49:47.446Z,8.05
2018-04-26T23:52:22.028Z,8.04
2018-04-26T23:54:56.706Z,7.98
2018-04-26T23:57:31.302Z,7.87
